createdAt,value
2022-10-20T00:01:13.591Z,95898.53
2022-10-20T00:03:54.608Z,95897.66
2022-10-20T00:06:41.606Z,95898.53
2022-10-20T00:09:21.593Z,95904.38
2022-10-20T00:12:15.598Z,95899.28
2022-10-20T00:15:02.590Z,95905.19
2022-10-20T00:17:42.604Z,95903.47
2022-10-20T00:20:29.596Z,95902.63
2022-10-20T00:23:02.647Z,95903.47
2022-10-20T00:25:49.603Z,95902.56
2022-10-20T00:28:22.665Z,95899.97
2022-10-20T00:31:13.507Z,95899.13
2022-10-20T00:33:54.633Z,95895.69
2022-10-20T00:36:41.623Z,95898.22
2022-10-20T00:39:21.611Z,95893.06
2022-10-20T00:42:12.599Z,95892.19
2022-10-20T00:44:59.595Z,95887.94
2022-10-20T00:48:02.603Z,95885.38
2022-10-20T00:50:52.602Z,95892.97
2022-10-20T00:53:47.596Z,95890.34
2022-10-20T00:56:34.627Z,95892.03
2022-10-20T00:59:10.688Z,95901.31
2022-10-20T01:01:57.660Z,95895.38
2022-10-20T01:04:33.690Z,95894.53
2022-10-20T01:07:20.611Z,95894.53
2022-10-20T01:09:53.707Z,95890.25
2022-10-20T01:12:55.614Z,95889.31
2022-10-20T01:15:50.698Z,95882.50
2022-10-20T01:18:56.627Z,95886.72
2022-10-20T01:21:55.605Z,95890.13
2022-10-20T01:25:08.636Z,95892.69
2022-10-20T01:28:25.603Z,95887.53
2022-10-20T01:31:28.635Z,95893.44
2022-10-20T01:34:24.614Z,95890.84
2022-10-20T01:37:07.776Z,95888.31
2022-10-20T01:40:08.624Z,95884.03
2022-10-20T01:42:53.642Z,95885.72
2022-10-20T01:45:50.625Z,95892.41
2022-10-20T01:48:40.650Z,95887.25
2022-10-20T01:51:14.699Z,95892.31
2022-10-20T01:54:01.630Z,95889.66
2022-10-20T01:57:04.637Z,95895.59
2022-10-20T02:00:00.644Z,95898.97
2022-10-20T02:03:21.641Z,95892.13
2022-10-20T02:06:38.661Z,95893.00
2022-10-20T02:12:51.629Z,95897.97
2022-10-20T02:15:30.727Z,95899.56
2022-10-20T02:18:20.641Z,95902.97
2022-10-20T02:20:56.726Z,95898.69
2022-10-20T02:23:46.661Z,95896.16
2022-10-20T02:26:23.739Z,95898.66
2022-10-20T02:29:17.657Z,95907.16
2022-10-20T02:31:51.733Z,95903.81
2022-10-20T02:34:42.274Z,95906.34
2022-10-20T02:40:03.662Z,95908.09
2022-10-20T02:42:37.509Z,95906.41
2022-10-20T02:45:24.638Z,95908.16
2022-10-20T02:47:57.798Z,95903.13
2022-10-20T02:50:44.654Z,95912.44
2022-10-20T02:53:17.821Z,95904.81
2022-10-20T02:56:05.656Z,95904.81
2022-10-20T02:58:38.728Z,95911.59
2022-10-20T03:01:25.733Z,95912.38
2022-10-20T03:04:00.021Z,95903.88
2022-10-20T03:06:47.668Z,95916.56
2022-10-20T03:09:27.672Z,95903.06
2022-10-20T03:12:21.683Z,95913.19
2022-10-20T03:15:15.669Z,95921.66
2022-10-20T03:18:02.675Z,95919.94
2022-10-20T03:20:42.703Z,95924.19
2022-10-20T03:23:29.680Z,95925.84
2022-10-20T03:26:13.735Z,95920.75
2022-10-20T03:29:00.669Z,95932.63
2022-10-20T03:31:33.737Z,95938.50
2022-10-20T03:34:20.676Z,95937.63
2022-10-20T03:36:53.894Z,95933.44
2022-10-20T03:39:40.687Z,95938.53
2022-10-20T03:42:13.742Z,95937.72
2022-10-20T03:45:00.676Z,95932.63
2022-10-20T03:47:40.675Z,95933.44
2022-10-20T03:50:34.673Z,95936.03
2022-10-20T03:53:28.698Z,95935.97
2022-10-20T03:56:18.676Z,95941.81
2022-10-20T03:58:51.837Z,95937.63
2022-10-20T04:01:39.738Z,95941.81
2022-10-20T04:04:12.743Z,95943.50
2022-10-20T04:06:59.704Z,95936.63
2022-10-20T04:09:32.755Z,95942.53
2022-10-20T04:12:19.706Z,95947.56
2022-10-20T04:14:59.680Z,95942.47
2022-10-20T04:17:53.691Z,95955.88
2022-10-20T04:20:47.698Z,95945.66
2022-10-20T04:23:41.690Z,95942.25
2022-10-20T04:26:28.698Z,95942.16
2022-10-20T04:29:09.688Z,95942.97
2022-10-20T04:31:56.700Z,95944.63
2022-10-20T04:34:36.708Z,95950.56
2022-10-20T04:37:23.733Z,95948.75
2022-10-20T04:39:57.835Z,95953.88
2022-10-20T04:42:44.683Z,95951.28
2022-10-20T04:45:17.813Z,95949.63
2022-10-20T04:48:04.706Z,95946.16
2022-10-20T04:50:37.782Z,95941.94
2022-10-20T04:53:24.695Z,95942.75
2022-10-20T04:56:02.783Z,95942.66
2022-10-20T04:58:49.722Z,95946.84
2022-10-20T05:01:30.749Z,95947.72
2022-10-20T05:04:27.707Z,95959.53
2022-10-20T05:07:21.720Z,95959.47
2022-10-20T05:10:15.738Z,95954.41
2022-10-20T05:13:02.708Z,95963.72
2022-10-20T05:15:35.783Z,95967.06
2022-10-20T05:18:22.721Z,95971.25
2022-10-20T05:21:10.934Z,95977.06
2022-10-20T05:24:02.725Z,95974.41
2022-10-20T05:26:37.822Z,95978.56
2022-10-20T05:29:24.737Z,95987.00
2022-10-20T05:31:57.785Z,95981.84
2022-10-20T05:34:45.718Z,95982.69
2022-10-20T05:37:18.845Z,95984.28
2022-10-20T05:40:13.723Z,95990.16
2022-10-20T05:43:07.730Z,96001.06
2022-10-20T05:46:07.717Z,95991.66
2022-10-20T05:48:54.713Z,96005.19
2022-10-20T05:51:36.727Z,96000.03
2022-10-20T05:54:30.711Z,96005.09
2022-10-20T05:57:17.748Z,96000.78
2022-10-20T05:59:50.805Z,96014.34
2022-10-20T06:02:38.024Z,96009.28
2022-10-20T06:05:18.745Z,96022.03
2022-10-20T06:08:05.710Z,96021.28
2022-10-20T06:10:45.727Z,96022.22
2022-10-20T06:13:39.715Z,96025.78
2022-10-20T06:16:36.730Z,96034.44
2022-10-20T06:19:23.732Z,96041.31
2022-10-20T06:22:06.746Z,96044.72
2022-10-20T06:24:53.754Z,96041.31
2022-10-20T06:27:26.796Z,96038.81
2022-10-20T06:30:16.735Z,96043.97
2022-10-20T06:32:56.734Z,96048.25
2022-10-20T06:35:50.743Z,96050.06
2022-10-20T06:38:37.752Z,96051.00
2022-10-20T06:41:12.860Z,96052.69
2022-10-20T06:44:04.739Z,96049.38
2022-10-20T06:46:47.749Z,96051.16
2022-10-20T06:49:41.761Z,96056.25
2022-10-20T06:52:28.737Z,96064.75
2022-10-20T06:55:01.824Z,96062.19
2022-10-20T06:57:48.739Z,96069.06
2022-10-20T07:00:21.847Z,96070.03
2022-10-20T07:03:08.748Z,96070.03
2022-10-20T07:05:41.811Z,96069.25
2022-10-20T07:08:29.785Z,96070.28
2022-10-20T07:11:13.839Z,96069.47
2022-10-20T07:14:00.779Z,96067.00
2022-10-20T07:16:43.765Z,96067.94
2022-10-20T07:19:30.741Z,96063.69
2022-10-20T07:22:10.791Z,96073.09
2022-10-20T07:24:57.771Z,96074.81
2022-10-20T07:27:37.778Z,96075.72
2022-10-20T07:30:24.774Z,96072.25
2022-10-20T07:33:04.743Z,96078.16
2022-10-20T07:35:58.778Z,96087.41
2022-10-20T07:38:45.768Z,96078.09
2022-10-20T07:41:18.859Z,96085.66
2022-10-20T07:44:05.789Z,96084.06
2022-10-20T07:46:38.868Z,96074.81
2022-10-20T07:49:43.377Z,96073.28
2022-10-20T07:52:25.760Z,96079.28
2022-10-20T07:55:37.663Z,96073.41
2022-10-20T07:58:32.762Z,96070.13
2022-10-20T08:01:26.838Z,96071.88
2022-10-20T08:04:13.785Z,96064.25
2022-10-20T08:06:47.296Z,96065.06
2022-10-20T08:09:34.002Z,96061.78
2022-10-20T08:12:13.802Z,96060.13
2022-10-20T08:15:00.803Z,96055.94
2022-10-20T08:17:33.881Z,96060.19
2022-10-20T08:20:29.558Z,96051.69
2022-10-20T08:23:09.789Z,96054.31
2022-10-20T08:26:02.803Z,96051.78
2022-10-20T08:28:42.780Z,96052.78
2022-10-20T08:31:29.783Z,96047.03
2022-10-20T08:34:02.908Z,96054.72
2022-10-20T08:36:49.779Z,96048.84
2022-10-20T08:39:29.806Z,96048.16
2022-10-20T08:42:17.779Z,96042.34
2022-10-20T08:44:59.816Z,96039.00
2022-10-20T08:47:53.783Z,96039.97
2022-10-20T08:50:52.775Z,96040.13
2022-10-20T08:53:28.906Z,96042.75
2022-10-20T08:56:19.789Z,96041.13
2022-10-20T08:58:52.944Z,96038.69
2022-10-20T09:01:42.874Z,96039.63
2022-10-20T09:04:26.900Z,96036.22
2022-10-20T09:07:43.805Z,96038.81
2022-10-20T09:10:22.891Z,96037.22
2022-10-20T09:13:17.813Z,96039.00
2022-10-20T09:15:57.802Z,96035.66
2022-10-20T09:18:51.814Z,96034.84
2022-10-20T09:21:41.804Z,96041.66
2022-10-20T09:24:21.843Z,96039.16
2022-10-20T09:27:42.807Z,96037.63
2022-10-20T09:30:42.818Z,96047.03
2022-10-20T09:33:47.808Z,96046.22
2022-10-20T09:36:39.791Z,96050.44
2022-10-20T09:39:19.809Z,96048.75
2022-10-20T09:42:26.809Z,96059.81
2022-10-20T09:45:23.882Z,96058.09
2022-10-20T09:48:00.681Z,96052.94
2022-10-20T09:50:52.838Z,96052.06
2022-10-20T09:53:28.990Z,96051.19
2022-10-20T09:56:15.820Z,96040.97
2022-10-20T09:58:52.897Z,96044.34
2022-10-20T10:01:39.809Z,96037.53
2022-10-20T10:04:41.934Z,96036.72
2022-10-20T10:07:28.821Z,96037.59
2022-10-20T10:10:10.917Z,96031.59
2022-10-20T10:13:07.846Z,96034.16
2022-10-20T10:15:45.899Z,96030.81
2022-10-20T10:18:32.838Z,96026.59
2022-10-20T10:21:09.937Z,96025.78
2022-10-20T10:24:07.846Z,96017.25
2022-10-20T10:26:49.920Z,96018.97
2022-10-20T10:29:47.844Z,96002.81
2022-10-20T10:32:42.871Z,96009.63
2022-10-20T10:35:39.853Z,96007.09
2022-10-20T10:38:15.930Z,96005.34
2022-10-20T10:41:31.820Z,95998.56
2022-10-20T10:44:51.905Z,95998.56
2022-10-20T10:48:08.843Z,95992.59
2022-10-20T10:51:03.853Z,95988.41
2022-10-20T10:53:49.835Z,95981.59
2022-10-20T10:56:39.857Z,95982.47
2022-10-20T10:59:43.850Z,95978.25
2022-10-20T11:02:37.091Z,95978.22
2022-10-20T11:05:19.983Z,95979.09
2022-10-20T11:08:23.874Z,95973.16
2022-10-20T11:11:15.936Z,95974.00
2022-10-20T11:14:02.854Z,95973.13
2022-10-20T11:16:43.944Z,95957.84
2022-10-20T11:19:52.859Z,95964.66
2022-10-20T11:23:03.949Z,95963.81
2022-10-20T11:26:01.875Z,95954.47
2022-10-20T11:29:04.950Z,95951.97
2022-10-20T11:32:13.858Z,95943.44
2022-10-20T11:35:07.916Z,95946.84
2022-10-20T11:38:11.937Z,95944.34
2022-10-20T11:41:07.876Z,95937.53
2022-10-20T11:43:49.932Z,95927.38
2022-10-20T11:46:42.858Z,95929.91
2022-10-20T11:49:15.942Z,95923.97
2022-10-20T11:52:27.860Z,95923.13
2022-10-20T11:55:27.951Z,95929.09
2022-10-20T11:58:34.878Z,95922.31
2022-10-20T12:01:17.890Z,95925.72
2022-10-20T12:04:23.876Z,95920.59
2022-10-20T12:08:17.433Z,95913.81
2022-10-20T12:11:30.879Z,95912.16
2022-10-20T12:14:38.878Z,95914.69
2022-10-20T12:17:37.882Z,95918.06
2022-10-20T12:20:35.884Z,95906.19
2022-10-20T12:23:50.889Z,95909.59
2022-10-20T12:26:44.759Z,95906.22
2022-10-20T12:29:44.891Z,95902.84
2022-10-20T12:32:49.902Z,95896.91
2022-10-20T12:35:57.891Z,95894.34
2022-10-20T12:38:31.041Z,95889.22
2022-10-20T12:41:30.896Z,95891.78
2022-10-20T12:44:10.957Z,95894.34
2022-10-20T12:47:12.911Z,95890.97
2022-10-20T12:49:57.985Z,95891.81
2022-10-20T12:52:46.899Z,95884.19
2022-10-20T12:55:41.800Z,95882.50
2022-10-20T12:58:28.900Z,95880.78
2022-10-20T13:01:02.217Z,95884.19
2022-10-20T13:03:50.907Z,95882.50
2022-10-20T13:06:37.909Z,95889.28
2022-10-20T13:09:27.954Z,95878.25
2022-10-20T13:12:06.015Z,95881.66
2022-10-20T13:15:00.905Z,95879.09
2022-10-20T13:17:49.906Z,95875.72
2022-10-20T13:21:30.922Z,95879.13
2022-10-20T13:24:44.807Z,95885.94
2022-10-20T13:27:39.272Z,95882.53
2022-10-20T13:30:34.921Z,95882.53
2022-10-20T13:34:10.927Z,95882.53
2022-10-20T13:37:06.941Z,95878.28
2022-10-20T13:40:18.909Z,95874.88
2022-10-20T13:43:26.911Z,95881.72
2022-10-20T13:46:15.068Z,95871.50
2022-10-20T13:49:13.933Z,95880.84
2022-10-20T13:51:54.005Z,95873.19
2022-10-20T13:54:43.952Z,95875.75
2022-10-20T13:57:39.013Z,95879.16
2022-10-20T14:00:38.973Z,95873.22
2022-10-20T14:03:31.939Z,95882.56
2022-10-20T14:06:33.940Z,95866.41
2022-10-20T14:09:24.054Z,95869.81
2022-10-20T14:12:13.943Z,95870.66
2022-10-20T14:15:01.971Z,95858.75
2022-10-20T14:17:55.960Z,95861.28
2022-10-20T14:20:47.957Z,95850.25
2022-10-20T14:23:21.019Z,95854.50
2022-10-20T14:26:09.951Z,95853.66
2022-10-20T14:28:44.015Z,95846.84
2022-10-20T14:31:31.979Z,95843.44
2022-10-20T14:34:05.000Z,95843.44
2022-10-20T14:36:51.949Z,95846.81
2022-10-20T14:39:36.033Z,95845.09
2022-10-20T14:42:29.946Z,95844.22
2022-10-20T14:45:11.973Z,95846.75
2022-10-20T14:47:59.937Z,95846.78
2022-10-20T14:50:49.978Z,95848.47
2022-10-20T14:53:47.946Z,95839.16
2022-10-20T14:56:41.947Z,95840.84
2022-10-20T14:59:42.949Z,95843.44
2022-10-20T15:02:33.966Z,95840.03
2022-10-20T15:05:35.967Z,95846.81
2022-10-20T15:08:37.994Z,95842.59
2022-10-20T15:11:38.947Z,95835.75
2022-10-20T15:14:32.952Z,95834.03
2022-10-20T15:17:43.990Z,95837.38
2022-10-20T15:20:37.457Z,95843.31
2022-10-20T15:23:32.968Z,95839.84
2022-10-20T15:26:12.042Z,95837.28
2022-10-20T15:29:05.967Z,95840.59
2022-10-20T15:31:52.982Z,95838.00
2022-10-20T15:34:26.605Z,95840.53
2022-10-20T15:37:12.981Z,95836.22
2022-10-20T15:39:46.098Z,95831.94
2022-10-20T15:42:32.967Z,95836.13
2022-10-20T15:45:06.044Z,95836.91
2022-10-20T15:47:52.982Z,95842.81
2022-10-20T15:50:26.046Z,95831.72
2022-10-20T15:53:12.996Z,95836.75
2022-10-20T15:55:49.052Z,95832.44
2022-10-20T15:58:39.635Z,95831.56
2022-10-20T16:01:13.164Z,95831.53
2022-10-20T16:03:59.968Z,95842.50
2022-10-20T16:06:33.045Z,95828.03
2022-10-20T16:09:20.034Z,95834.75
2022-10-20T16:12:00.992Z,95835.53
2022-10-20T16:14:54.985Z,95841.38
2022-10-20T16:20:40.988Z,95836.97
2022-10-20T16:23:20.982Z,95834.34
2022-10-20T16:26:17.980Z,95847.81
2022-10-20T16:29:13.009Z,95852.81
2022-10-20T16:32:07.012Z,95851.03
2022-10-20T16:34:53.989Z,95856.84
2022-10-20T16:37:27.335Z,95853.41
2022-10-20T16:40:14.014Z,95857.63
2022-10-20T16:42:53.996Z,95860.13
2022-10-20T16:45:40.981Z,95853.28
2022-10-20T16:48:14.069Z,95863.44
2022-10-20T16:51:00.994Z,95858.25
2022-10-20T16:53:41.007Z,95863.25
2022-10-20T16:56:36.006Z,95866.59
2022-10-20T16:59:22.996Z,95864.00
2022-10-20T17:01:56.094Z,95861.41
2022-10-20T17:04:42.989Z,95865.59
2022-10-20T17:07:16.215Z,95868.03
2022-10-20T17:10:03.017Z,95862.06
2022-10-20T17:12:43.085Z,95871.31
2022-10-20T17:15:37.010Z,95864.53
2022-10-20T17:18:31.001Z,95874.63
2022-10-20T17:21:19.008Z,95880.50
2022-10-20T17:23:59.996Z,95874.53
2022-10-20T17:26:54.030Z,95876.16
2022-10-20T17:29:47.995Z,95878.59
2022-10-20T17:32:35.403Z,95871.72
2022-10-20T17:35:09.111Z,95874.19
2022-10-20T17:37:56.009Z,95869.06
2022-10-20T17:40:36.032Z,95869.00
2022-10-20T17:43:31.020Z,95877.38
2022-10-20T17:46:20.033Z,95874.72
2022-10-20T17:48:54.097Z,95873.81
2022-10-20T17:51:41.049Z,95874.50
2022-10-20T17:54:17.154Z,95873.53
2022-10-20T17:57:04.013Z,95877.72
2022-10-20T17:59:47.327Z,95875.09
2022-10-20T18:02:40.225Z,95870.75
2022-10-20T18:05:21.048Z,95864.63
2022-10-20T18:08:15.046Z,95866.97
2022-10-20T18:11:02.027Z,95857.63
2022-10-20T18:13:35.189Z,95864.34
2022-10-20T18:16:24.024Z,95873.53
2022-10-20T18:21:49.035Z,95870.03
2022-10-20T18:24:30.051Z,95864.03
2022-10-20T18:27:24.025Z,95864.72
2022-10-20T18:30:18.026Z,95866.34
2022-10-20T18:33:05.037Z,95862.13
2022-10-20T18:35:38.121Z,95861.22
2022-10-20T18:38:25.039Z,95855.28
2022-10-20T18:40:58.194Z,95860.28
2022-10-20T18:43:45.049Z,95860.09
2022-10-20T18:46:26.041Z,95860.06
2022-10-20T18:49:21.023Z,95863.38
2022-10-20T18:52:09.049Z,95862.41
2022-10-20T18:54:42.131Z,95859.72
2022-10-20T18:57:29.053Z,95858.81
2022-10-20T19:00:05.080Z,95856.22
2022-10-20T19:02:59.343Z,95862.91
2022-10-20T19:05:37.827Z,95856.94
2022-10-20T19:08:24.060Z,95856.06
2022-10-20T19:10:57.148Z,95858.50
2022-10-20T19:13:44.063Z,95856.88
2022-10-20T19:16:23.132Z,95858.59
2022-10-20T19:19:13.059Z,95866.13
2022-10-20T19:21:46.146Z,95871.84
2022-10-20T19:24:33.054Z,95871.72
2022-10-20T19:27:28.274Z,95875.00
2022-10-20T19:33:14.058Z,95873.16
2022-10-20T19:35:54.082Z,95870.69
2022-10-20T19:38:48.079Z,95874.91
2022-10-20T19:41:35.054Z,95868.09
2022-10-20T19:44:08.204Z,95875.63
2022-10-20T19:46:58.070Z,95871.31
2022-10-20T19:49:39.091Z,95871.16
2022-10-20T19:52:26.109Z,95866.09
2022-10-20T19:55:07.071Z,95871.03
2022-10-20T19:58:01.110Z,95867.56
2022-10-20T20:00:53.125Z,95871.69
2022-10-20T20:03:37.088Z,95875.91
2022-10-20T20:06:35.072Z,95878.44
2022-10-20T20:09:25.075Z,95866.44
2022-10-20T20:11:58.249Z,95868.75
2022-10-20T20:14:45.069Z,95876.31
2022-10-20T20:17:25.088Z,95880.63
2022-10-20T20:20:19.068Z,95879.88
2022-10-20T20:23:06.085Z,95877.34
2022-10-20T20:25:51.127Z,95870.50
2022-10-20T20:28:45.079Z,95866.97
2022-10-20T20:31:40.084Z,95863.53
2022-10-20T20:34:27.142Z,95865.94
2022-10-20T20:37:00.193Z,95871.72
2022-10-20T20:39:47.081Z,95865.72
2022-10-20T20:42:20.161Z,95863.97
2022-10-20T20:45:08.072Z,95860.38
2022-10-20T20:47:41.165Z,95867.00
2022-10-20T20:50:28.095Z,95869.41
2022-10-20T20:53:01.148Z,95865.06
2022-10-20T20:55:48.090Z,95868.44
2022-10-20T20:58:28.097Z,95864.34
2022-10-20T21:01:26.126Z,95859.31
2022-10-20T21:04:21.127Z,95850.84
2022-10-20T21:07:15.099Z,95856.66
2022-10-20T21:10:02.104Z,95859.19
2022-10-20T21:12:35.501Z,95855.69
2022-10-20T21:15:22.091Z,95852.34
2022-10-20T21:18:02.090Z,95839.69
2022-10-20T21:20:56.104Z,95829.50
2022-10-20T21:23:50.083Z,95835.38
2022-10-20T21:26:44.117Z,95830.16
2022-10-20T21:29:31.110Z,95824.16
2022-10-20T21:32:04.160Z,95828.28
2022-10-20T21:34:51.099Z,95822.34
2022-10-20T21:37:31.087Z,95832.44
2022-10-20T21:40:18.112Z,95833.94
2022-10-20T21:42:58.100Z,95838.88
2022-10-20T21:45:52.101Z,95833.03
2022-10-20T21:48:39.139Z,95832.25
2022-10-20T21:51:16.177Z,95827.97
2022-10-20T21:54:08.176Z,95823.72
2022-10-20T21:56:50.132Z,95821.19
2022-10-20T21:59:38.116Z,95812.66
2022-10-20T22:02:13.880Z,95816.00
2022-10-20T22:05:00.109Z,95817.63
2022-10-20T22:07:35.414Z,95819.22
2022-10-20T22:10:22.135Z,95815.84
2022-10-20T22:12:55.200Z,95809.88
2022-10-20T22:15:46.109Z,95807.41
2022-10-20T22:18:26.119Z,95813.25
2022-10-20T22:21:15.112Z,95798.81
2022-10-20T22:23:57.105Z,95796.28
2022-10-20T22:26:44.120Z,95792.88
2022-10-20T22:29:18.351Z,95791.91
2022-10-20T22:32:05.127Z,95792.69
2022-10-20T22:34:45.137Z,95785.97
2022-10-20T22:37:32.109Z,95795.94
2022-10-20T22:40:12.139Z,95795.09
2022-10-20T22:42:59.128Z,95799.28
2022-10-20T22:45:32.213Z,95792.56
2022-10-20T22:48:19.126Z,95796.00
2022-10-20T22:50:59.127Z,95787.59
2022-10-20T22:53:53.137Z,95791.06
2022-10-20T22:56:47.126Z,95787.69
2022-10-20T22:59:34.143Z,95793.41
2022-10-20T23:02:07.207Z,95787.34
2022-10-20T23:04:54.146Z,95782.31
2022-10-20T23:07:27.241Z,95784.03
2022-10-20T23:10:14.116Z,95788.25
2022-10-20T23:12:47.240Z,95778.97
2022-10-20T23:15:34.133Z,95778.00
2022-10-20T23:18:14.168Z,95778.84
2022-10-20T23:21:01.151Z,95775.44
2022-10-20T23:23:41.144Z,95775.25
2022-10-20T23:26:35.131Z,95768.47
2022-10-20T23:29:29.132Z,95770.03
2022-10-20T23:32:16.155Z,95776.88
2022-10-20T23:34:49.269Z,95767.75
2022-10-20T23:37:36.383Z,95772.00
2022-10-20T23:40:17.157Z,95772.97
2022-10-20T23:43:11.152Z,95766.19
2022-10-20T23:45:58.145Z,95764.50
2022-10-20T23:48:38.126Z,95766.13
2022-10-20T23:51:25.158Z,95761.97
2022-10-20T23:53:58.212Z,95766.06
2022-10-20T23:56:45.158Z,95768.59
2022-10-20T23:59:18.221Z,95767.66
